Time,TemperatureF,DewpointF,PressureIn,WindDirection,WindDirectionDegrees,WindSpeedMPH,WindSpeedGustMPH,Humidity,HourlyPrecipIn,Conditions,Clouds,dailyrainin,SoftwareType,DateUTC
2013-06-09 00:01:00,67.8,56.4,30.04,SSW,202,0.0,0.0,67,0.00,,,0.00,WUHU21623XXSP,2013-06-09 04:01:00,
2013-06-09 00:06:00,67.8,56.4,30.04,SW,225,0.0,0.0,67,0.00,,,0.00,WUHU21623XXSP,2013-06-09 04:06:00,
2013-06-09 00:11:00,67.8,56.9,30.04,SSW,202,0.0,0.0,68,0.00,,,0.00,WUHU21623XXSP,2013-06-09 04:11:00,
2013-06-09 00:16:00,67.8,56.9,30.05,South,180,0.0,0.0,68,0.00,,,0.00,WUHU21623XXSP,2013-06-09 04:16:00,
2013-06-09 00:21:00,67.8,57.3,30.04,SSW,202,0.0,0.0,69,0.00,,,0.00,WUHU21623XXSP,2013-06-09 04:21:00,
2013-06-09 00:27:00,67.8,57.3,30.05,SSW,202,0.0,0.0,69,0.00,,,0.00,WUHU21623XXSP,2013-06-09 04:27:00,
2013-06-09 00:32:00,67.8,57.3,30.05,South,180,0.0,0.0,69,0.00,,,0.00,WUHU21623XXSP,2013-06-09 04:32:00,
2013-06-09 00:37:00,67.8,57.3,30.04,South,180,0.0,0.0,69,0.00,,,0.00,WUHU21623XXSP,2013-06-09 04:37:00,
2013-06-09 00:42:00,67.8,57.3,30.04,SSE,157,1.8,1.8,69,0.00,,,0.00,WUHU21623XXSP,2013-06-09 04:42:00,
2013-06-09 00:47:00,67.6,57.6,30.05,West,270,0.0,1.8,70,0.00,,,0.00,WUHU21623XXSP,2013-06-09 04:47:00,
2013-06-09 00:52:00,67.8,57.7,30.05,SW,225,0.0,0.0,70,0.00,,,0.00,WUHU21623XXSP,2013-06-09 04:52:00,
2013-06-09 00:57:00,67.6,57.6,30.05,SSW,202,0.0,0.0,70,0.00,,,0.00,WUHU21623XXSP,2013-06-09 04:57:00,
2013-06-09 01:02:00,67.6,57.6,30.05,North,0,0.0,0.0,70,0.00,,,0.00,WUHU21623XXSP,2013-06-09 05:02:00,
2013-06-09 01:07:00,67.6,57.6,30.05,South,180,0.0,0.0,70,0.00,,,0.00,WUHU21623XXSP,2013-06-09 05:07:00,
2013-06-09 01:12:00,67.6,57.6,30.05,SE,135,0.0,0.0,70,0.00,,,0.00,WUHU21623XXSP,2013-06-09 05:12:00,
2013-06-09 01:17:00,67.6,57.9,30.05,SE,135,0.0,0.0,71,0.00,,,0.00,WUHU21623XXSP,2013-06-09 05:17:00,
2013-06-09 01:22:00,67.3,57.6,30.05,SSW,202,0.0,0.0,71,0.00,,,0.00,WUHU21623XXSP,2013-06-09 05:22:00,
2013-06-09 01:27:00,67.3,57.6,30.05,SW,225,0.0,0.0,71,0.00,,,0.00,WUHU21623XXSP,2013-06-09 05:27:00,
2013-06-09 01:32:00,67.3,58.0,30.05,SSW,202,0.0,0.0,72,0.00,,,0.00,WUHU21623XXSP,2013-06-09 05:32:00,
2013-06-09 01:37:00,67.3,58.0,30.05,SSW,202,0.0,0.0,72,0.00,,,0.00,WUHU21623XXSP,2013-06-09 05:37:00,
2013-06-09 01:42:00,67.1,57.8,30.05,SSW,202,0.0,0.0,72,0.00,,,0.00,WUHU21623XXSP,2013-06-09 05:42:00,
2013-06-09 01:47:00,66.9,57.6,30.05,South,180,0.0,0.0,72,0.00,,,0.00,WUHU21623XXSP,2013-06-09 05:47:00,
2013-06-09 01:52:00,66.9,57.6,30.05,South,180,0.0,0.0,72,0.00,,,0.00,WUHU21623XXSP,2013-06-09 05:52:00,
2013-06-09 01:57:00,66.9,58.0,30.05,South,180,0.0,0.0,73,0.00,,,0.00,WUHU21623XXSP,2013-06-09 05:57:00,
2013-06-09 02:02:00,66.9,58.0,30.05,South,180,0.0,0.0,73,0.00,,,0.00,WUHU21623XXSP,2013-06-09 06:02:00,
2013-06-09 02:07:00,66.9,58.0,30.06,South,180,0.0,0.0,73,0.00,,,0.00,WUHU21623XXSP,2013-06-09 06:07:00,
2013-06-09 02:12:00,66.9,58.0,30.06,SSW,202,0.0,0.0,73,0.00,,,0.00,WUHU21623XXSP,2013-06-09 06:12:00,
2013-06-09 02:17:00,66.9,58.0,30.05,SSW,202,0.0,0.0,73,0.00,,,0.00,WUHU21623XXSP,2013-06-09 06:17:00,
2013-06-09 02:22:00,66.9,58.4,30.05,SSW,202,0.0,0.0,74,0.00,,,0.00,WUHU21623XXSP,2013-06-09 06:22:00,
2013-06-09 02:27:00,66.9,58.4,30.05,SSW,202,0.0,0.0,74,0.00,,,0.00,WUHU21623XXSP,2013-06-09 06:27:00,
2013-06-09 02:32:00,66.9,58.4,30.05,SSW,202,0.0,0.0,74,0.00,,,0.00,WUHU21623XXSP,2013-06-09 06:32:00,
2013-06-09 02:37:00,66.9,58.4,30.05,SSW,202,0.0,0.0,74,0.00,,,0.00,WUHU21623XXSP,2013-06-09 06:37:00,
2013-06-09 02:42:00,66.9,58.4,30.04,SSW,202,0.0,0.0,74,0.00,,,0.00,WUHU21623XXSP,2013-06-09 06:42:00,
2013-06-09 02:47:00,66.9,58.4,30.05,South,180,0.0,0.0,74,0.00,,,0.00,WUHU21623XXSP,2013-06-09 06:47:00,
2013-06-09 02:52:00,66.7,58.2,30.05,SSW,202,0.0,0.0,74,0.00,,,0.00,WUHU21623XXSP,2013-06-09 06:52:00,
2013-06-09 02:57:00,66.7,58.2,30.05,South,180,0.0,0.0,74,0.00,,,0.00,WUHU21623XXSP,2013-06-09 06:57:00,
2013-06-09 03:02:00,66.7,58.2,30.05,South,180,0.0,0.0,74,0.00,,,0.00,WUHU21623XXSP,2013-06-09 07:02:00,
2013-06-09 03:07:00,66.7,58.2,30.05,South,180,0.0,0.0,74,0.00,,,0.00,WUHU21623XXSP,2013-06-09 07:07:00,
2013-06-09 03:12:00,66.7,58.2,30.05,South,180,0.0,0.0,74,0.00,,,0.00,WUHU21623XXSP,2013-06-09 07:12:00,
2013-06-09 03:17:00,66.7,58.5,30.05,South,180,0.0,0.0,75,0.00,,,0.00,WUHU21623XXSP,2013-06-09 07:17:00,
2013-06-09 03:22:00,66.7,58.5,30.05,South,180,0.0,0.0,75,0.00,,,0.00,WUHU21623XXSP,2013-06-09 07:22:00,
2013-06-09 03:27:00,66.7,58.5,30.05,South,180,0.0,0.0,75,0.00,,,0.00,WUHU21623XXSP,2013-06-09 07:27:00,
2013-06-09 03:32:00,66.7,58.5,30.05,South,180,0.0,0.0,75,0.00,,,0.00,WUHU21623XXSP,2013-06-09 07:32:00,
2013-06-09 03:37:00,66.7,58.5,30.04,South,180,0.0,0.0,75,0.00,,,0.00,WUHU21623XXSP,2013-06-09 07:37:00,
2013-06-09 03:42:00,66.6,58.4,30.04,South,180,0.0,0.0,75,0.00,,,0.00,WUHU21623XXSP,2013-06-09 07:42:00,
2013-06-09 03:47:00,66.6,58.4,30.03,South,180,0.0,0.0,75,0.00,,,0.00,WUHU21623XXSP,2013-06-09 07:47:00,
2013-06-09 03:52:00,66.6,58.4,30.03,South,180,0.0,0.0,75,0.00,,,0.00,WUHU21623XXSP,2013-06-09 07:52:00,
2013-06-09 03:57:00,66.6,58.4,30.04,South,180,0.0,0.0,75,0.00,,,0.00,WUHU21623XXSP,2013-06-09 07:57:00,
2013-06-09 04:02:00,66.6,58.4,30.04,South,180,0.0,0.0,75,0.00,,,0.00,WUHU21623XXSP,2013-06-09 08:02:00,
2013-06-09 04:07:00,66.4,58.2,30.04,South,180,0.0,0.0,75,0.00,,,0.00,WUHU21623XXSP,2013-06-09 08:07:00,
2013-06-09 04:12:00,66.4,58.2,30.05,South,180,0.0,0.0,75,0.00,,,0.00,WUHU21623XXSP,2013-06-09 08:12:00,
2013-06-09 04:17:00,66.4,58.2,30.04,South,180,0.0,0.0,75,0.00,,,0.00,WUHU21623XXSP,2013-06-09 08:17:00,
2013-06-09 04:22:00,66.4,58.2,30.05,South,180,0.0,0.0,75,0.00,,,0.00,WUHU21623XXSP,2013-06-09 08:22:00,
2013-06-09 04:27:00,66.4,58.2,30.05,SSW,202,0.0,0.0,75,0.00,,,0.00,WUHU21623XXSP,2013-06-09 08:27:00,
2013-06-09 04:32:00,66.4,58.2,30.05,SSW,202,0.0,0.0,75,0.00,,,0.00,WUHU21623XXSP,2013-06-09 08:32:00,
2013-06-09 04:37:00,66.4,58.2,30.05,SSW,202,0.0,0.0,75,0.00,,,0.00,WUHU21623XXSP,2013-06-09 08:37:00,
2013-06-09 04:42:00,66.4,58.2,30.05,SSW,202,0.0,0.0,75,0.00,,,0.00,WUHU21623XXSP,2013-06-09 08:42:00,
2013-06-09 04:47:00,66.4,58.2,30.04,SSW,202,0.0,0.0,75,0.00,,,0.00,WUHU21623XXSP,2013-06-09 08:47:00,
2013-06-09 04:52:00,66.4,58.2,30.05,SSW,202,0.0,0.0,75,0.00,,,0.00,WUHU21623XXSP,2013-06-09 08:52:00,
2013-06-09 04:57:00,66.2,58.0,30.05,SSW,202,0.0,0.0,75,0.00,,,0.00,WUHU21623XXSP,2013-06-09 08:57:00,
2013-06-09 05:02:00,66.2,58.0,30.05,SSW,202,0.0,0.0,75,0.00,,,0.00,WUHU21623XXSP,2013-06-09 09:02:00,
2013-06-09 05:07:00,66.2,58.0,30.05,SSW,202,0.0,0.0,75,0.00,,,0.00,WUHU21623XXSP,2013-06-09 09:07:00,
2013-06-09 05:12:00,66.2,58.0,30.05,SSW,202,0.0,0.0,75,0.00,,,0.00,WUHU21623XXSP,2013-06-09 09:12:00,
2013-06-09 05:17:00,66.0,57.8,30.05,SSW,202,0.0,0.0,75,0.00,,,0.00,WUHU21623XXSP,2013-06-09 09:17:00,
2013-06-09 05:22:00,66.0,57.8,30.05,SSW,202,0.0,0.0,75,0.00,,,0.00,WUHU21623XXSP,2013-06-09 09:22:00,
2013-06-09 05:27:00,65.8,57.7,30.05,SSW,202,0.0,0.0,75,0.00,,,0.00,WUHU21623XXSP,2013-06-09 09:27:00,
2013-06-09 05:32:00,65.8,58.0,30.05,SSW,202,0.0,0.0,76,0.00,,,0.00,WUHU21623XXSP,2013-06-09 09:32:00,
2013-06-09 05:37:00,65.7,57.9,30.05,SSW,202,0.0,0.0,76,0.00,,,0.00,WUHU21623XXSP,2013-06-09 09:37:00,
2013-06-09 05:42:00,65.7,57.9,30.05,SSW,202,0.0,0.0,76,0.00,,,0.00,WUHU21623XXSP,2013-06-09 09:42:00,
2013-06-09 05:47:00,65.5,57.7,30.05,SSW,202,0.0,0.0,76,0.00,,,0.00,WUHU21623XXSP,2013-06-09 09:47:00,
2013-06-09 05:52:00,65.5,57.7,30.05,SSW,202,0.0,0.0,76,0.00,,,0.00,WUHU21623XXSP,2013-06-09 09:52:00,
2013-06-09 05:57:00,65.5,57.7,30.06,SSW,202,0.0,0.0,76,0.00,,,0.00,WUHU21623XXSP,2013-06-09 09:57:00,
2013-06-09 06:02:00,65.3,57.5,30.05,SSW,202,0.0,0.0,76,0.00,,,0.00,WUHU21623XXSP,2013-06-09 10:02:00,
2013-06-09 06:07:00,65.1,57.3,30.05,SSW,202,0.0,0.0,76,0.00,,,0.00,WUHU21623XXSP,2013-06-09 10:07:00,
2013-06-09 06:12:00,65.1,57.3,30.05,SSW,202,0.0,0.0,76,0.00,,,0.00,WUHU21623XXSP,2013-06-09 10:12:00,
2013-06-09 06:17:00,64.9,57.2,30.06,SSW,202,0.0,0.0,76,0.00,,,0.00,WUHU21623XXSP,2013-06-09 10:17:00,
2013-06-09 06:22:00,64.9,57.2,30.05,SSW,202,0.0,0.0,76,0.00,,,0.00,WUHU21623XXSP,2013-06-09 10:22:00,
2013-06-09 06:27:00,64.8,57.0,30.05,SSW,202,0.0,0.0,76,0.00,,,0.00,WUHU21623XXSP,2013-06-09 10:27:00,
2013-06-09 06:32:00,64.8,57.0,30.06,SSW,202,0.0,0.0,76,0.00,,,0.00,WUHU21623XXSP,2013-06-09 10:32:00,
2013-06-09 06:37:00,64.6,56.8,30.05,SSW,202,0.0,0.0,76,0.00,,,0.00,WUHU21623XXSP,2013-06-09 10:37:00,
2013-06-09 06:42:00,64.6,56.8,30.06,SSW,202,0.0,0.0,76,0.00,,,0.00,WUHU21623XXSP,2013-06-09 10:42:00,
2013-06-09 06:47:00,64.6,56.8,30.06,SSW,202,0.0,0.0,76,0.00,,,0.00,WUHU21623XXSP,2013-06-09 10:47:00,
2013-06-09 06:52:00,64.4,56.7,30.06,SSW,202,0.0,0.0,76,0.00,,,0.00,WUHU21623XXSP,2013-06-09 10:52:00,
2013-06-09 06:57:00,64.2,56.8,30.06,SSW,202,0.0,0.0,77,0.00,,,0.00,WUHU21623XXSP,2013-06-09 10:57:00,
2013-06-09 07:02:00,64.4,57.0,30.06,SSW,202,0.0,0.0,77,0.00,,,0.00,WUHU21623XXSP,2013-06-09 11:02:00,
2013-06-09 07:07:00,64.6,57.2,30.06,SSW,202,0.0,0.0,77,0.00,,,0.00,WUHU21623XXSP,2013-06-09 11:07:00,
2013-06-09 07:12:00,64.6,57.2,30.06,SSW,202,0.0,0.0,77,0.00,,,0.00,WUHU21623XXSP,2013-06-09 11:12:00,
2013-06-09 07:17:00,64.8,57.7,30.07,SSW,202,0.0,0.0,78,0.00,,,0.00,WUHU21623XXSP,2013-06-09 11:17:00,
2013-06-09 07:22:00,64.8,57.7,30.07,SSW,202,0.0,0.0,78,0.00,,,0.00,WUHU21623XXSP,2013-06-09 11:22:00,
2013-06-09 07:27:00,64.9,57.9,30.06,SSW,202,0.0,0.0,78,0.00,,,0.00,WUHU21623XXSP,2013-06-09 11:27:00,
2013-06-09 07:32:00,64.9,57.9,30.06,SSW,202,0.0,0.0,78,0.00,,,0.00,WUHU21623XXSP,2013-06-09 11:32:00,
2013-06-09 07:37:00,65.1,58.1,30.06,SSW,202,0.0,0.0,78,0.00,,,0.00,WUHU21623XXSP,2013-06-09 11:37:00,
2013-06-09 07:42:00,65.1,58.1,30.06,SSW,202,0.0,0.0,78,0.00,,,0.00,WUHU21623XXSP,2013-06-09 11:42:00,
2013-06-09 07:47:00,65.3,58.3,30.06,SSW,202,0.0,0.0,78,0.00,,,0.00,WUHU21623XXSP,2013-06-09 11:47:00,
2013-06-09 07:52:00,65.3,58.3,30.06,South,180,0.0,0.0,78,0.00,,,0.00,WUHU21623XXSP,2013-06-09 11:52:00,
2013-06-09 07:57:00,65.7,58.6,30.06,South,180,0.0,0.0,78,0.00,,,0.00,WUHU21623XXSP,2013-06-09 11:57:00,
2013-06-09 08:02:00,65.8,58.8,30.06,SSW,202,0.0,0.0,78,0.00,,,0.00,WUHU21623XXSP,2013-06-09 12:02:00,
2013-06-09 08:07:00,66.0,59.0,30.06,SSW,202,0.0,0.0,78,0.00,,,0.00,WUHU21623XXSP,2013-06-09 12:07:00,
2013-06-09 08:12:00,66.0,59.3,30.06,South,180,0.0,2.5,79,0.00,,,0.00,WUHU21623XXSP,2013-06-09 12:12:00,
2013-06-09 08:17:00,66.2,59.5,30.06,WSW,247,0.0,2.5,79,0.00,,,0.00,WUHU21623XXSP,2013-06-09 12:17:00,
2013-06-09 08:22:00,66.4,59.3,30.06,SSE,157,0.0,0.0,78,0.00,,,0.00,WUHU21623XXSP,2013-06-09 12:22:00,
2013-06-09 08:27:00,66.6,59.5,30.06,South,180,0.0,0.0,78,0.00,,,0.00,WUHU21623XXSP,2013-06-09 12:27:00,
2013-06-09 08:32:00,66.9,59.9,30.06,SSE,157,0.0,0.0,78,0.00,,,0.00,WUHU21623XXSP,2013-06-09 12:32:00,
2013-06-09 08:37:00,67.1,60.0,30.06,SSE,157,0.0,0.0,78,0.00,,,0.00,WUHU21623XXSP,2013-06-09 12:37:00,
2013-06-09 08:42:00,67.3,60.2,30.06,WSW,247,0.0,2.2,78,0.00,,,0.00,WUHU21623XXSP,2013-06-09 12:42:00,
2013-06-09 08:47:00,67.3,60.2,30.06,SSW,202,0.0,2.2,78,0.00,,,0.00,WUHU21623XXSP,2013-06-09 12:47:00,
2013-06-09 08:52:00,67.3,60.2,30.06,SSW,202,0.0,0.0,78,0.00,,,0.00,WUHU21623XXSP,2013-06-09 12:52:00,
2013-06-09 08:57:00,67.6,60.6,30.06,SSE,157,0.0,0.0,78,0.00,,,0.00,WUHU21623XXSP,2013-06-09 12:57:00,
2013-06-09 09:02:00,67.6,60.6,30.06,SSE,157,0.0,0.0,78,0.00,,,0.00,WUHU21623XXSP,2013-06-09 13:02:00,
2013-06-09 09:07:00,67.8,60.8,30.06,SSW,202,0.0,0.0,78,0.00,,,0.00,WUHU21623XXSP,2013-06-09 13:07:00,
2013-06-09 09:12:00,67.8,60.4,30.05,SSW,202,0.0,0.0,77,0.00,,,0.00,WUHU21623XXSP,2013-06-09 13:12:00,
2013-06-09 09:17:00,67.8,60.8,30.05,SSW,202,0.0,0.0,78,0.00,,,0.00,WUHU21623XXSP,2013-06-09 13:17:00,
2013-06-09 09:22:00,68.2,61.1,30.05,SSE,157,0.0,0.0,78,0.00,,,0.00,WUHU21623XXSP,2013-06-09 13:22:00,
2013-06-09 09:27:00,68.4,60.9,30.06,South,180,2.0,2.0,77,0.00,,,0.00,WUHU21623XXSP,2013-06-09 13:27:00,
2013-06-09 09:32:00,68.5,61.1,30.05,South,180,3.8,3.8,77,0.00,,,0.00,WUHU21623XXSP,2013-06-09 13:32:00,
2013-06-09 09:37:00,68.5,61.1,30.05,ESE,112,0.0,3.8,77,0.00,,,0.00,WUHU21623XXSP,2013-06-09 13:37:00,
2013-06-09 09:42:00,68.9,61.4,30.05,ESE,112,0.0,0.0,77,0.00,,,0.00,WUHU21623XXSP,2013-06-09 13:42:00,
2013-06-09 09:47:00,68.9,61.4,30.05,SE,135,0.0,0.0,77,0.00,,,0.00,WUHU21623XXSP,2013-06-09 13:47:00,
2013-06-09 09:52:00,69.4,61.9,30.05,SSW,202,1.8,1.8,77,0.00,,,0.00,WUHU21623XXSP,2013-06-09 13:52:00,
2013-06-09 09:57:00,69.6,62.0,30.05,SSE,157,0.0,1.8,77,0.00,,,0.00,WUHU21623XXSP,2013-06-09 13:57:00,
2013-06-09 10:02:00,69.8,62.2,30.06,SSE,157,0.0,1.8,77,0.00,,,0.00,WUHU21623XXSP,2013-06-09 14:02:00,
2013-06-09 10:07:00,69.8,62.2,30.05,SSE,157,0.0,0.0,77,0.00,,,0.00,WUHU21623XXSP,2013-06-09 14:07:00,
2013-06-09 10:12:00,70.0,62.0,30.05,WSW,247,0.0,0.0,76,0.00,,,0.00,WUHU21623XXSP,2013-06-09 14:12:00,
2013-06-09 10:17:00,70.0,62.4,30.05,WSW,247,0.0,0.0,77,0.00,,,0.00,WUHU21623XXSP,2013-06-09 14:17:00,
2013-06-09 10:22:00,70.0,62.4,30.05,WSW,247,0.0,0.0,77,0.00,,,0.00,WUHU21623XXSP,2013-06-09 14:22:00,
2013-06-09 10:27:00,70.3,62.7,30.05,WSW,247,0.0,0.0,77,0.00,,,0.00,WUHU21623XXSP,2013-06-09 14:27:00,
2013-06-09 10:32:00,70.3,62.7,30.05,WSW,247,0.0,0.0,77,0.00,,,0.00,WUHU21623XXSP,2013-06-09 14:32:00,
2013-06-09 10:37:00,70.5,62.9,30.05,WSW,247,0.0,0.0,77,0.00,,,0.00,WUHU21623XXSP,2013-06-09 14:37:00,
2013-06-09 10:42:00,70.7,62.7,30.04,SSW,202,0.0,0.0,76,0.00,,,0.00,WUHU21623XXSP,2013-06-09 14:42:00,
2013-06-09 10:47:00,70.9,62.9,30.04,SSW,202,0.0,0.0,76,0.00,,,0.00,WUHU21623XXSP,2013-06-09 14:47:00,
2013-06-09 10:52:00,71.2,63.2,30.04,NE,45,0.0,0.0,76,0.00,,,0.00,WUHU21623XXSP,2013-06-09 14:52:00,
2013-06-09 10:57:00,71.4,63.4,30.04,SSE,157,0.0,0.0,76,0.00,,,0.00,WUHU21623XXSP,2013-06-09 14:57:00,
2013-06-09 11:02:00,71.2,63.4,30.04,SSE,157,0.0,0.0,76,0.00,,,0.00,WUHU21623XXSP,2013-06-09 15:02:00,
2013-06-09 11:07:00,71.5,63.3,30.04,SW,225,0.0,0.0,75,0.00,,,0.00,WUHU21623XXSP,2013-06-09 15:07:00,
2013-06-09 11:12:00,71.2,62.7,30.04,SSE,157,0.0,0.0,74,0.00,,,0.00,WUHU21623XXSP,2013-06-09 15:12:00,
2013-06-09 11:17:00,71.0,62.4,30.05,South,180,0.0,0.0,74,0.00,,,0.00,WUHU21623XXSP,2013-06-09 15:17:00,
2013-06-09 11:22:00,70.7,61.8,30.05,South,180,0.0,0.0,73,0.00,,,0.00,WUHU21623XXSP,2013-06-09 15:22:00,
2013-06-09 11:27:00,70.4,61.5,30.05,ESE,112,0.0,0.0,73,0.00,,,0.00,WUHU21623XXSP,2013-06-09 15:27:00,
2013-06-09 11:32:00,70.1,61.2,30.05,SE,135,0.0,0.0,73,0.00,,,0.00,WUHU21623XXSP,2013-06-09 15:32:00,
2013-06-09 11:37:00,70.0,61.1,30.05,SSE,157,0.0,1.6,73,0.00,,,0.00,WUHU21623XXSP,2013-06-09 15:37:00,
2013-06-09 11:42:00,70.0,60.7,30.05,South,180,4.5,4.5,72,0.00,,,0.00,WUHU21623XXSP,2013-06-09 15:42:00,
2013-06-09 11:47:00,70.1,60.8,30.05,South,180,4.5,4.5,72,0.00,,,0.00,WUHU21623XXSP,2013-06-09 15:47:00,
2013-06-09 11:52:00,69.9,60.2,30.05,South,180,0.0,4.5,71,0.00,,,0.00,WUHU21623XXSP,2013-06-09 15:52:00,
2013-06-09 11:57:00,69.8,60.2,30.05,WSW,247,0.0,0.0,71,0.00,,,0.00,WUHU21623XXSP,2013-06-09 15:57:00,
2013-06-09 12:02:00,69.7,59.7,30.05,SSW,202,0.0,0.0,70,0.00,,,0.00,WUHU21623XXSP,2013-06-09 16:02:00,
2013-06-09 12:07:00,70.0,59.9,30.04,SSW,202,0.0,0.0,70,0.00,,,0.00,WUHU21623XXSP,2013-06-09 16:07:00,
2013-06-09 12:12:00,69.9,59.5,30.04,SSE,155,1.9,3.4,69,0.00,,,0.00,WUHU21623XXSP,2013-06-09 16:12:00,
2013-06-09 12:17:00,70.1,59.2,30.04,SSW,202,0.0,3.4,68,0.00,,,0.00,WUHU21623XXSP,2013-06-09 16:17:00,
2013-06-09 12:22:00,70.4,59.5,30.04,West,270,0.0,0.7,68,0.00,,,0.00,WUHU21623XXSP,2013-06-09 16:22:00,
2013-06-09 12:27:00,70.3,59.5,30.04,WSW,247,0.0,0.7,68,0.00,,,0.00,WUHU21623XXSP,2013-06-09 16:27:00,
2013-06-09 12:32:00,70.5,59.2,30.04,SSW,202,5.4,5.4,67,0.00,,,0.00,WUHU21623XXSP,2013-06-09 16:32:00,
2013-06-09 12:37:00,70.6,59.3,30.04,WSW,247,0.7,5.4,67,0.00,,,0.00,WUHU21623XXSP,2013-06-09 16:37:00,
2013-06-09 12:42:00,70.6,58.5,30.03,South,180,0.0,0.7,65,0.00,,,0.00,WUHU21623XXSP,2013-06-09 16:42:00,
2013-06-09 12:47:00,70.8,58.3,30.03,West,270,0.0,0.7,64,0.00,,,0.00,WUHU21623XXSP,2013-06-09 16:47:00,
2013-06-09 12:52:00,70.7,57.6,30.03,WSW,247,0.0,0.0,63,0.00,,,0.00,WUHU21623XXSP,2013-06-09 16:52:00,
2013-06-09 12:57:00,70.5,57.9,30.03,SW,225,0.0,0.0,64,0.00,,,0.00,WUHU21623XXSP,2013-06-09 16:57:00,
2013-06-09 13:02:00,70.2,57.6,30.02,SSE,157,2.7,2.7,64,0.00,,,0.00,WUHU21623XXSP,2013-06-09 17:02:00,
2013-06-09 13:07:00,70.0,56.1,30.02,ESE,112,2.0,2.7,61,0.00,,,0.00,WUHU21623XXSP,2013-06-09 17:07:00,
2013-06-09 13:12:00,70.2,55.4,30.01,East,90,0.0,2.7,59,0.00,,,0.00,WUHU21623XXSP,2013-06-09 17:12:00,
2013-06-09 13:17:00,70.3,54.5,30.01,SSE,157,0.0,0.0,57,0.00,,,0.00,WUHU21623XXSP,2013-06-09 17:17:00,
2013-06-09 13:22:00,70.9,55.0,30.01,WSW,247,0.0,0.0,57,0.00,,,0.00,WUHU21623XXSP,2013-06-09 17:22:00,
2013-06-09 13:27:00,71.0,55.1,30.00,SW,225,1.3,1.3,57,0.00,,,0.00,WUHU21623XXSP,2013-06-09 17:27:00,
2013-06-09 13:32:00,71.3,54.9,30.00,SW,225,1.3,1.3,56,0.00,,,0.00,WUHU21623XXSP,2013-06-09 17:32:00,
2013-06-09 13:37:00,71.7,54.8,30.00,WNW,292,4.3,4.3,55,0.00,,,0.00,WUHU21623XXSP,2013-06-09 17:37:00,
2013-06-09 13:42:00,71.7,54.3,30.00,WNW,292,4.3,4.3,54,0.00,,,0.00,WUHU21623XXSP,2013-06-09 17:42:00,
2013-06-09 13:47:00,72.2,54.3,30.00,WSW,247,3.1,4.3,53,0.00,,,0.00,WUHU21623XXSP,2013-06-09 17:47:00,
2013-06-09 13:52:00,72.2,53.7,30.00,South,180,1.1,4.3,52,0.00,,,0.00,WUHU21623XXSP,2013-06-09 17:52:00,
2013-06-09 13:57:00,72.0,53.0,29.99,SSE,157,1.1,3.1,51,0.00,,,0.00,WUHU21623XXSP,2013-06-09 17:57:00,
2013-06-09 14:02:00,72.0,53.0,29.99,ESE,112,0.0,1.1,51,0.00,,,0.00,WUHU21623XXSP,2013-06-09 18:02:00,
2013-06-09 14:07:00,71.6,52.1,30.00,WSW,247,0.0,1.1,50,0.00,,,0.00,WUHU21623XXSP,2013-06-09 18:07:00,
2013-06-09 14:12:00,71.6,52.1,29.99,ESE,112,4.0,4.0,50,0.00,,,0.00,WUHU21623XXSP,2013-06-09 18:12:00,
2013-06-09 14:17:00,71.7,52.7,29.99,SW,225,0.0,4.0,51,0.00,,,0.00,WUHU21623XXSP,2013-06-09 18:17:00,
2013-06-09 14:22:00,72.1,53.1,29.98,NW,315,1.3,4.0,51,0.00,,,0.00,WUHU21623XXSP,2013-06-09 18:22:00,
2013-06-09 14:27:00,72.5,52.9,29.98,SW,225,0.0,1.3,50,0.00,,,0.00,WUHU21623XXSP,2013-06-09 18:27:00,
2013-06-09 14:32:00,72.6,53.5,29.98,West,270,3.1,3.1,51,0.00,,,0.00,WUHU21623XXSP,2013-06-09 18:32:00,
2013-06-09 14:37:00,73.1,52.8,29.97,ESE,112,0.0,3.1,49,0.00,,,0.00,WUHU21623XXSP,2013-06-09 18:37:00,
2013-06-09 14:42:00,73.2,52.9,29.97,ENE,67,0.0,0.0,49,0.00,,,0.00,WUHU21623XXSP,2013-06-09 18:42:00,
2013-06-09 14:47:00,73.7,53.4,29.97,SSE,157,0.0,0.0,49,0.00,,,0.00,WUHU21623XXSP,2013-06-09 18:47:00,
2013-06-09 14:52:00,73.8,53.0,29.97,NE,45,2.9,3.4,48,0.00,,,0.00,WUHU21623XXSP,2013-06-09 18:52:00,
2013-06-09 14:57:00,73.8,53.5,29.97,WSW,247,0.0,3.4,49,0.00,,,0.00,WUHU21623XXSP,2013-06-09 18:57:00,
2013-06-09 15:02:00,73.9,53.6,29.97,SE,135,1.3,1.3,49,0.00,,,0.00,WUHU21623XXSP,2013-06-09 19:02:00,
2013-06-09 15:07:00,73.7,52.8,29.97,East,93,2.5,3.1,48,0.00,,,0.00,WUHU21623XXSP,2013-06-09 19:07:00,
2013-06-09 15:12:00,73.9,53.6,29.97,SW,225,1.8,3.1,49,0.00,,,0.00,WUHU21623XXSP,2013-06-09 19:12:00,
2013-06-09 15:17:00,73.9,53.6,29.97,WSW,247,3.6,3.6,49,0.00,,,0.00,WUHU21623XXSP,2013-06-09 19:17:00,
2013-06-09 15:22:00,74.0,53.6,29.97,SSW,202,0.9,3.6,49,0.00,,,0.00,WUHU21623XXSP,2013-06-09 19:22:00,
2013-06-09 15:27:00,74.2,54.5,29.96,SSW,202,3.1,3.6,50,0.00,,,0.00,WUHU21623XXSP,2013-06-09 19:27:00,
2013-06-09 15:32:00,74.5,55.3,29.96,SSE,157,5.1,5.1,51,0.00,,,0.00,WUHU21623XXSP,2013-06-09 19:32:00,
2013-06-09 15:37:00,75.1,54.7,29.95,SSW,202,2.9,5.1,49,0.00,,,0.00,WUHU21623XXSP,2013-06-09 19:37:00,
2013-06-09 15:42:00,75.5,55.1,29.95,West,270,6.7,6.7,49,0.00,,,0.00,WUHU21623XXSP,2013-06-09 19:42:00,
2013-06-09 15:47:00,76.0,55.5,29.95,West,270,0.0,6.7,49,0.00,,,0.00,WUHU21623XXSP,2013-06-09 19:47:00,
2013-06-09 15:52:00,76.5,56.0,29.95,ESE,122,1.5,6.7,49,0.00,,,0.00,WUHU21623XXSP,2013-06-09 19:52:00,
2013-06-09 15:57:00,76.8,56.3,29.95,East,90,2.9,2.9,49,0.00,,,0.00,WUHU21623XXSP,2013-06-09 19:57:00,
2013-06-09 16:02:00,77.1,56.5,29.95,ESE,112,0.0,2.9,49,0.00,,,0.00,WUHU21623XXSP,2013-06-09 20:02:00,
2013-06-09 16:07:00,77.1,56.6,29.95,SSW,202,2.5,2.9,49,0.00,,,0.00,WUHU21623XXSP,2013-06-09 20:07:00,
2013-06-09 16:12:00,77.1,56.5,29.95,South,180,2.5,2.5,49,0.00,,,0.00,WUHU21623XXSP,2013-06-09 20:12:00,
2013-06-09 16:17:00,77.4,56.8,29.95,ESE,112,7.2,7.2,49,0.00,,,0.00,WUHU21623XXSP,2013-06-09 20:17:00,
2013-06-09 16:22:00,77.7,55.9,29.94,ESE,112,0.0,7.2,47,0.00,,,0.00,WUHU21623XXSP,2013-06-09 20:22:00,
2013-06-09 16:27:00,78.0,57.3,29.94,SW,225,0.0,7.2,49,0.00,,,0.00,WUHU21623XXSP,2013-06-09 20:27:00,
2013-06-09 16:32:00,78.2,57.0,29.94,East,90,0.0,2.0,48,0.00,,,0.00,WUHU21623XXSP,2013-06-09 20:32:00,
2013-06-09 16:37:00,78.6,56.7,29.94,SW,225,1.6,2.0,47,0.00,,,0.00,WUHU21623XXSP,2013-06-09 20:37:00,
2013-06-09 16:42:00,78.9,57.6,29.93,West,270,0.0,1.6,48,0.00,,,0.00,WUHU21623XXSP,2013-06-09 20:42:00,
2013-06-09 16:47:00,79.2,57.8,29.93,South,180,4.3,4.3,48,0.00,,,0.00,WUHU21623XXSP,2013-06-09 20:47:00,
2013-06-09 16:52:00,79.3,58.5,29.93,SE,135,0.7,4.3,49,0.00,,,0.00,WUHU21623XXSP,2013-06-09 20:52:00,
2013-06-09 16:57:00,79.6,58.8,29.93,NE,45,0.0,4.3,49,0.00,,,0.00,WUHU21623XXSP,2013-06-09 20:57:00,
2013-06-09 17:02:00,79.7,58.8,29.93,ESE,112,0.0,0.7,49,0.00,,,0.00,WUHU21623XXSP,2013-06-09 21:02:00,
2013-06-09 17:07:00,79.5,59.3,29.94,South,180,2.0,2.0,50,0.00,,,0.00,WUHU21623XXSP,2013-06-09 21:07:00,
2013-06-09 17:12:00,79.3,59.1,29.94,SE,135,0.0,2.0,50,0.00,,,0.00,WUHU21623XXSP,2013-06-09 21:12:00,
2013-06-09 17:17:00,79.2,59.0,29.93,ESE,112,0.9,0.9,50,0.00,,,0.00,WUHU21623XXSP,2013-06-09 21:17:00,
2013-06-09 17:22:00,79.0,58.8,29.93,South,180,1.1,1.1,50,0.00,,,0.00,WUHU21623XXSP,2013-06-09 21:22:00,
2013-06-09 17:27:00,79.0,58.8,29.93,SSW,202,2.0,2.0,50,0.00,,,0.00,WUHU21623XXSP,2013-06-09 21:27:00,
2013-06-09 17:32:00,79.0,58.8,29.92,ESE,112,0.0,2.0,50,0.00,,,0.00,WUHU21623XXSP,2013-06-09 21:32:00,
2013-06-09 17:37:00,79.0,58.8,29.92,ESE,112,1.1,2.0,50,0.00,,,0.00,WUHU21623XXSP,2013-06-09 21:37:00,
2013-06-09 17:42:00,79.0,58.8,29.93,South,180,0.0,1.6,50,0.00,,,0.00,WUHU21623XXSP,2013-06-09 21:42:00,
2013-06-09 17:47:00,79.0,58.8,29.93,SSE,157,0.0,1.1,50,0.00,,,0.00,WUHU21623XXSP,2013-06-09 21:47:00,
2013-06-09 17:52:00,78.8,58.6,29.93,SSE,157,0.0,0.0,50,0.00,,,0.00,WUHU21623XXSP,2013-06-09 21:52:00,
2013-06-09 17:57:00,78.8,59.2,29.92,West,270,1.8,1.8,51,0.00,,,0.00,WUHU21623XXSP,2013-06-09 21:57:00,
2013-06-09 18:02:00,78.6,59.0,29.93,ENE,67,0.0,1.8,51,0.00,,,0.00,WUHU21623XXSP,2013-06-09 22:02:00,
2013-06-09 18:07:00,78.6,59.0,29.92,SSE,157,0.0,1.8,51,0.00,,,0.00,WUHU21623XXSP,2013-06-09 22:07:00,
2013-06-09 18:12:00,78.6,58.5,29.92,SE,135,0.0,0.0,50,0.00,,,0.00,WUHU21623XXSP,2013-06-09 22:12:00,
2013-06-09 18:17:00,78.6,58.5,29.92,SW,225,0.0,0.0,50,0.00,,,0.00,WUHU21623XXSP,2013-06-09 22:17:00,
2013-06-09 18:22:00,78.6,58.5,29.92,South,180,0.0,0.0,50,0.00,,,0.00,WUHU21623XXSP,2013-06-09 22:22:00,
2013-06-09 18:27:00,78.6,58.5,29.92,SSE,157,2.9,2.9,50,0.00,,,0.00,WUHU21623XXSP,2013-06-09 22:27:00,
2013-06-09 18:32:00,78.4,58.3,29.92,South,180,0.0,2.9,50,0.00,,,0.00,WUHU21623XXSP,2013-06-09 22:32:00,
2013-06-09 18:37:00,78.4,58.8,29.92,SSE,157,5.1,5.1,51,0.00,,,0.00,WUHU21623XXSP,2013-06-09 22:37:00,
2013-06-09 18:42:00,78.4,58.8,29.92,SE,135,0.0,5.1,51,0.00,,,0.00,WUHU21623XXSP,2013-06-09 22:42:00,
2013-06-09 18:47:00,78.1,59.0,29.93,SE,135,1.8,5.1,52,0.00,,,0.00,WUHU21623XXSP,2013-06-09 22:47:00,
2013-06-09 18:52:00,77.7,59.7,29.93,SSW,202,2.2,2.2,54,0.00,,,0.00,WUHU21623XXSP,2013-06-09 22:52:00,
2013-06-09 18:57:00,77.5,60.0,29.93,SSW,202,0.0,2.2,55,0.00,,,0.00,WUHU21623XXSP,2013-06-09 22:57:00,
2013-06-09 19:02:00,77.2,60.2,29.92,SSW,202,0.0,0.0,56,0.00,,,0.00,WUHU21623XXSP,2013-06-09 23:02:00,
2013-06-09 19:07:00,76.3,60.4,29.92,SE,135,0.0,0.0,58,0.00,,,0.00,WUHU21623XXSP,2013-06-09 23:07:00,
2013-06-09 19:12:00,75.9,60.1,29.92,SE,135,0.0,0.0,58,0.00,,,0.00,WUHU21623XXSP,2013-06-09 23:12:00,
2013-06-09 19:17:00,75.7,60.9,29.92,SSE,157,0.0,0.0,60,0.00,,,0.00,WUHU21623XXSP,2013-06-09 23:17:00,
2013-06-09 19:22:00,75.0,60.7,29.92,East,90,0.0,0.0,61,0.00,,,0.00,WUHU21623XXSP,2013-06-09 23:22:00,
2013-06-09 19:27:00,74.8,60.9,29.92,East,90,0.0,0.0,62,0.00,,,0.00,WUHU21623XXSP,2013-06-09 23:27:00,
2013-06-09 19:32:00,74.1,60.2,29.92,East,90,0.0,0.0,62,0.00,,,0.00,WUHU21623XXSP,2013-06-09 23:32:00,
2013-06-09 19:37:00,74.1,60.2,29.92,East,90,0.0,0.0,62,0.00,,,0.00,WUHU21623XXSP,2013-06-09 23:37:00,
2013-06-09 19:42:00,74.1,60.7,29.92,East,90,0.0,0.0,63,0.00,,,0.00,WUHU21623XXSP,2013-06-09 23:42:00,
2013-06-09 19:47:00,73.6,60.2,29.92,East,90,0.0,0.0,63,0.00,,,0.00,WUHU21623XXSP,2013-06-09 23:47:00,
2013-06-09 19:52:00,73.2,60.3,29.92,East,90,0.0,0.0,64,0.00,,,0.00,WUHU21623XXSP,2013-06-09 23:52:00,
2013-06-09 19:57:00,73.2,60.7,29.92,East,90,0.0,0.0,65,0.00,,,0.00,WUHU21623XXSP,2013-06-09 23:57:00,
2013-06-09 20:02:00,73.0,60.5,29.91,East,90,0.0,0.0,65,0.00,,,0.00,WUHU21623XXSP,2013-06-10 00:02:00,
2013-06-09 20:07:00,72.9,60.4,29.92,SW,225,0.0,0.0,65,0.00,,,0.00,WUHU21623XXSP,2013-06-10 00:07:00,
2013-06-09 20:12:00,73.0,61.0,29.92,ESE,112,5.4,5.4,66,0.00,,,0.00,WUHU21623XXSP,2013-06-10 00:12:00,
2013-06-09 20:17:00,73.0,60.5,29.92,South,180,6.3,6.3,65,0.00,,,0.00,WUHU21623XXSP,2013-06-10 00:17:00,
2013-06-09 20:22:00,73.0,60.5,29.93,South,180,2.7,6.3,65,0.00,,,0.00,WUHU21623XXSP,2013-06-10 00:22:00,
2013-06-09 20:27:00,73.0,60.5,29.93,SSW,202,0.0,2.7,65,0.00,,,0.00,WUHU21623XXSP,2013-06-10 00:27:00,
2013-06-09 20:32:00,72.9,60.4,29.92,SSW,202,2.9,2.9,65,0.00,,,0.00,WUHU21623XXSP,2013-06-10 00:32:00,
2013-06-09 20:37:00,72.9,60.4,29.92,NE,45,0.0,2.9,65,0.00,,,0.00,WUHU21623XXSP,2013-06-10 00:37:00,
2013-06-09 20:42:00,72.7,60.6,29.92,SSE,157,0.0,2.9,66,0.00,,,0.00,WUHU21623XXSP,2013-06-10 00:42:00,
2013-06-09 20:47:00,72.7,60.6,29.92,SE,135,0.0,0.0,66,0.00,,,0.00,WUHU21623XXSP,2013-06-10 00:47:00,
2013-06-09 20:52:00,72.7,61.1,29.92,SW,229,2.4,3.4,67,0.00,,,0.00,WUHU21623XXSP,2013-06-10 00:52:00,
2013-06-09 20:57:00,72.5,60.9,29.92,SE,135,2.7,3.4,67,0.00,,,0.00,WUHU21623XXSP,2013-06-10 00:57:00,
2013-06-09 21:02:00,72.5,60.7,29.91,East,90,0.9,2.7,67,0.00,,,0.00,WUHU21623XXSP,2013-06-10 01:02:00,
2013-06-09 21:07:00,72.3,61.2,29.91,WSW,247,3.1,3.1,68,0.00,,,0.00,WUHU21623XXSP,2013-06-10 01:07:00,
2013-06-09 21:12:00,72.3,61.2,29.91,SE,135,0.0,3.1,68,0.00,,,0.00,WUHU21623XXSP,2013-06-10 01:12:00,
2013-06-09 21:17:00,72.1,61.2,29.91,South,180,0.0,0.0,68,0.00,,,0.00,WUHU21623XXSP,2013-06-10 01:17:00,
2013-06-09 21:22:00,72.1,61.0,29.91,SE,135,0.0,0.0,68,0.00,,,0.00,WUHU21623XXSP,2013-06-10 01:22:00,
2013-06-09 21:27:00,72.1,61.4,29.91,South,180,0.0,0.0,69,0.00,,,0.00,WUHU21623XXSP,2013-06-10 01:27:00,
2013-06-09 21:32:00,72.1,61.4,29.91,ESE,112,0.9,0.9,69,0.00,,,0.00,WUHU21623XXSP,2013-06-10 01:32:00,
2013-06-09 21:37:00,72.1,61.4,29.91,SSE,157,0.0,0.9,69,0.00,,,0.00,WUHU21623XXSP,2013-06-10 01:37:00,
2013-06-09 21:42:00,72.0,61.7,29.90,SSW,202,4.5,4.5,70,0.00,,,0.00,WUHU21623XXSP,2013-06-10 01:42:00,
2013-06-09 21:47:00,72.0,61.7,29.90,South,180,0.0,4.5,70,0.00,,,0.00,WUHU21623XXSP,2013-06-10 01:47:00,
2013-06-09 21:52:00,72.0,61.7,29.91,SW,225,0.0,4.5,70,0.00,,,0.00,WUHU21623XXSP,2013-06-10 01:52:00,
2013-06-09 21:57:00,71.8,61.9,29.91,South,180,3.4,3.4,71,0.00,,,0.00,WUHU21623XXSP,2013-06-10 01:57:00,
2013-06-09 22:02:00,71.8,62.3,29.91,SE,135,0.4,3.4,72,0.00,,,0.00,WUHU21623XXSP,2013-06-10 02:02:00,
2013-06-09 22:07:00,71.4,62.3,29.92,South,180,0.7,3.4,73,0.00,,,0.00,WUHU21623XXSP,2013-06-10 02:07:00,
2013-06-09 22:12:00,71.4,62.3,29.91,South,180,0.7,0.7,73,0.00,,,0.00,WUHU21623XXSP,2013-06-10 02:12:00,
2013-06-09 22:17:00,70.9,62.5,29.91,WSW,247,0.0,0.7,75,0.00,,,0.00,WUHU21623XXSP,2013-06-10 02:17:00,
2013-06-09 22:22:00,69.6,62.0,29.90,ESE,112,0.0,0.7,77,0.00,,,0.00,WUHU21623XXSP,2013-06-10 02:22:00,
2013-06-09 22:27:00,69.1,61.5,29.90,ESE,112,0.0,0.0,77,0.00,,,0.00,WUHU21623XXSP,2013-06-10 02:27:00,
2013-06-09 22:32:00,68.7,61.6,29.90,ESE,112,0.0,0.0,78,0.00,,,0.00,WUHU21623XXSP,2013-06-10 02:32:00,
2013-06-09 22:37:00,68.5,61.8,29.90,ESE,112,0.0,0.0,79,0.00,,,0.00,WUHU21623XXSP,2013-06-10 02:37:00,
2013-06-09 22:42:00,68.4,61.6,29.90,ESE,112,0.0,0.0,79,0.00,,,0.00,WUHU21623XXSP,2013-06-10 02:42:00,
2013-06-09 22:47:00,68.2,61.9,29.90,ESE,112,0.0,0.0,80,0.00,,,0.00,WUHU21623XXSP,2013-06-10 02:47:00,
2013-06-09 22:52:00,68.2,62.2,29.90,ESE,112,0.0,0.0,81,0.00,,,0.00,WUHU21623XXSP,2013-06-10 02:52:00,
2013-06-09 22:57:00,67.8,61.8,29.90,ESE,112,0.0,0.0,81,0.00,,,0.00,WUHU21623XXSP,2013-06-10 02:57:00,
2013-06-09 23:02:00,67.8,61.8,29.90,ESE,112,0.0,0.0,81,0.00,,,0.00,WUHU21623XXSP,2013-06-10 03:02:00,
2013-06-09 23:08:00,67.8,61.8,29.90,ESE,112,0.0,0.0,81,0.00,,,0.00,WUHU21623XXSP,2013-06-10 03:08:00,
2013-06-09 23:13:00,67.8,61.8,29.89,ESE,112,0.0,0.0,81,0.00,,,0.00,WUHU21623XXSP,2013-06-10 03:13:00,
2013-06-09 23:18:00,67.8,61.8,29.89,ESE,112,0.0,0.0,81,0.00,,,0.00,WUHU21623XXSP,2013-06-10 03:18:00,
2013-06-09 23:23:00,67.6,61.7,29.90,ESE,112,0.0,0.0,81,0.00,,,0.00,WUHU21623XXSP,2013-06-10 03:23:00,
2013-06-09 23:28:00,67.6,61.7,29.89,ESE,112,0.0,0.0,81,0.00,,,0.00,WUHU21623XXSP,2013-06-10 03:28:00,
2013-06-09 23:33:00,67.6,61.7,29.89,ESE,112,0.0,0.0,81,0.00,,,0.00,WUHU21623XXSP,2013-06-10 03:33:00,
2013-06-09 23:38:00,67.5,61.5,29.89,ESE,112,0.0,0.0,81,0.00,,,0.00,WUHU21623XXSP,2013-06-10 03:38:00,
2013-06-09 23:43:00,67.5,61.5,29.89,ESE,112,0.0,0.0,81,0.00,,,0.00,WUHU21623XXSP,2013-06-10 03:43:00,
2013-06-09 23:48:00,67.6,62.0,29.89,SSE,157,0.0,0.0,82,0.00,,,0.00,WUHU21623XXSP,2013-06-10 03:48:00,
2013-06-09 23:53:00,67.6,62.3,29.89,SSE,157,0.0,0.0,83,0.00,,,0.00,WUHU21623XXSP,2013-06-10 03:53:00,
2013-06-09 23:58:00,67.6,62.3,29.89,SSE,157,0.0,0.0,83,0.00,,,0.00,WUHU21623XXSP,2013-06-10 03:58:00,